Terminal Aerodrome Forecast
Issued by NWS

Home | Current Version | Previous Version | Text Only | Print | Product List | Glossary On
Versions: 1 2 3 4 5 6 7 8 9 10 11 12 13 14 15 16 17 18 19
000
FTUS42 KFFC 211136
TAFRYY
TAF
KRYY 211136Z 2112/2212 VRB03KT P6SM SKC
     FM211500 11012KT P6SM SKC
     FM212300 10011KT P6SM SCT070
     FM220400 09010KT P6SM BKN050
     FM221000 10012KT P6SM BKN035=

USA.gov is the U.S. government's official web portal to all federal, state and local government web resources and services.